Aviation Digital Data Service (ADDS)

Output produced by METARs form (2108 UTC 06 December 2019)
found at http://www.aviationweather.gov/metar/data/
 
Forecast for: OERK (RIYADH/KING KHAL, SA)
Text: TAF OERK 061700Z 0618/0724 17006G16KT 8000 SKC
Forecast period: 1800 UTC 06 December 2019 to 0000 UTC 08 December 2019
Forecast type: FROM: standard forecast or significant change
Winds: from the S (170 degrees) at 7 MPH (6 knots; 3.1 m/s)
gusting to 18 MPH (16 knots; 8.2 m/s)
Visibility: 5 miles (8 km)
Clouds: clear skies
Weather: no significant weather forecast for this period
Text: TEMPO 0618/0706 5000 DU BLDU
Forecast period: 1800 UTC 06 December 2019 to 0600 UTC 07 December 2019
Forecast type: TEMPORARY: The following changes expected for less than half the time period
Visibility: 3 miles (5 km)
Ceiling: unknown
Clouds: missing
Weather: DU BLDU  (widespread dust, blowing dust)